Time;durP1;ratioP1;P1;durP2;ratioP2;P2;SDS_P1;SDS_P2;PMS_P1;PMS_P2;Temp;Humidity;BMP_temperature;BMP_pressure;BME280_temperature;BME280_humidity;BME280_pressure;Samples;Min_cycle;Max_cycle;Signal;HPM_P1;HPM_P2
2022/05/01 00:00:51;;;;;;;24.00;15.80;;;;;;;;;;4995498;28;20214;-69
2022/05/01 00:03:33;;;;;;;19.50;14.70;;;;;;;;;;5006323;28;20120;-70
2022/05/01 00:06:09;;;;;;;24.58;16.20;;;;;;;;;;5003543;28;20064;-71
2022/05/01 00:08:36;;;;;;;18.08;14.52;;;;;;;;;;4993607;28;20026;-70
2022/05/01 00:11:03;;;;;;;23.80;14.75;;;;;;;;;;5007598;28;20080;-70
2022/05/01 00:13:29;;;;;;;20.42;15.18;;;;;;;;;;4999269;28;20079;-70
2022/05/01 00:15:56;;;;;;;18.73;14.45;;;;;;;;;;5000953;28;20392;-71
2022/05/01 00:18:21;;;;;;;19.80;15.32;;;;;;;;;;5005754;28;20036;-70
2022/05/01 00:20:47;;;;;;;23.30;15.90;;;;;;;;;;4995304;28;20031;-70
2022/05/01 00:23:14;;;;;;;19.52;14.30;;;;;;;;;;5008131;28;20033;-71
2022/05/01 00:25:41;;;;;;;18.30;13.52;;;;;;;;;;5002928;28;20065;-70
2022/05/01 00:28:07;;;;;;;18.60;14.38;;;;;;;;;;5003623;28;20022;-70
2022/05/01 00:30:33;;;;;;;18.52;13.27;;;;;;;;;;4995659;28;20022;-70
2022/05/01 00:38:29;;;;;;;17.27;13.23;;;;;;;;;;4995334;28;20076;-71
2022/05/01 00:40:56;;;;;;;19.33;13.93;;;;;;;;;;5027913;22;20050;-73
2022/05/01 00:43:22;;;;;;;20.85;13.73;;;;;;;;;;5024732;28;20025;-72
2022/05/01 00:45:48;;;;;;;20.80;14.77;;;;;;;;;;5020088;28;20137;-71
2022/05/01 00:48:14;;;;;;;20.25;14.23;;;;;;;;;;5017029;28;20062;-72
2022/05/01 00:50:43;;;;;;;21.02;13.73;;;;;;;;;;5026524;28;20068;-72
2022/05/01 00:53:10;;;;;;;18.83;13.43;;;;;;;;;;5016215;28;20044;-72
2022/05/01 00:55:37;;;;;;;18.70;13.40;;;;;;;;;;5019112;28;20776;-72
2022/05/01 00:58:05;;;;;;;20.23;14.10;;;;;;;;;;5013839;28;20035;-72
2022/05/01 01:00:31;;;;;;;22.63;13.45;;;;;;;;;;5027158;28;20041;-73
2022/05/01 01:02:57;;;;;;;19.52;13.48;;;;;;;;;;5012034;28;20029;-72
2022/05/01 01:05:23;;;;;;;17.30;13.27;;;;;;;;;;5025128;28;20518;-72
2022/05/01 01:07:49;;;;;;;20.73;14.52;;;;;;;;;;5014797;28;20091;-73
2022/05/01 01:10:15;;;;;;;19.83;14.02;;;;;;;;;;5011004;28;20041;-72
2022/05/01 01:12:54;;;;;;;21.88;13.65;;;;;;;;;;5026623;28;20087;-72
2022/05/01 01:15:20;;;;;;;18.42;13.30;;;;;;;;;;5016318;28;20499;-73
2022/05/01 01:17:47;;;;;;;19.83;13.35;;;;;;;;;;5020504;28;20472;-71
2022/05/01 01:20:13;;;;;;;20.85;14.05;;;;;;;;;;5024136;28;20193;-71
2022/05/01 01:22:44;;;;;;;16.33;12.23;;;;;;;;;;5014655;28;20022;-72
2022/05/01 01:25:10;;;;;;;19.88;12.95;;;;;;;;;;5029958;28;20026;-72
2022/05/01 01:27:37;;;;;;;16.23;12.43;;;;;;;;;;5022512;28;20056;-71
2022/05/01 01:32:50;;;;;;;18.58;13.00;;;;;;;;;;5031106;28;20060;-70
2022/05/01 01:35:17;;;;;;;19.90;13.13;;;;;;;;;;5019060;28;20033;-70
2022/05/01 01:37:45;;;;;;;17.60;12.57;;;;;;;;;;5024665;28;20026;-71
2022/05/01 01:40:12;;;;;;;18.35;12.45;;;;;;;;;;5026661;28;20029;-71
2022/05/01 01:42:39;;;;;;;17.27;11.80;;;;;;;;;;5018375;28;20109;-71
2022/05/01 01:45:06;;;;;;;18.45;13.00;;;;;;;;;;5030672;28;20018;-70
2022/05/01 01:47:33;;;;;;;16.50;11.80;;;;;;;;;;5021442;28;20045;-71
2022/05/01 01:49:59;;;;;;;16.95;11.90;;;;;;;;;;5021889;28;20022;-71
2022/05/01 01:52:25;;;;;;;19.15;12.88;;;;;;;;;;5029294;28;20548;-71
2022/05/01 01:54:51;;;;;;;16.58;12.68;;;;;;;;;;5016157;28;20128;-73
2022/05/01 01:57:17;;;;;;;18.20;12.38;;;;;;;;;;5025572;28;20030;-72
2022/05/01 01:59:43;;;;;;;20.25;13.07;;;;;;;;;;5022940;28;20025;-73
2022/05/01 02:02:09;;;;;;;18.85;11.88;;;;;;;;;;5020908;28;20025;-73
2022/05/01 02:04:35;;;;;;;18.30;12.82;;;;;;;;;;5030323;28;20514;-72
2022/05/01 02:07:01;;;;;;;24.10;13.68;;;;;;;;;;5001379;28;20026;-72
2022/05/01 02:09:30;;;;;;;19.63;12.85;;;;;;;;;;5026288;28;20029;-73
2022/05/01 02:11:57;;;;;;;18.05;13.35;;;;;;;;;;5025196;28;20108;-73
2022/05/01 02:14:23;;;;;;;14.35;11.38;;;;;;;;;;5018973;28;20101;-73
2022/05/01 02:16:50;;;;;;;15.18;11.23;;;;;;;;;;5030414;28;20156;-74
2022/05/01 02:19:16;;;;;;;17.65;12.18;;;;;;;;;;5018664;28;20018;-73
2022/05/01 02:21:42;;;;;;;17.52;12.77;;;;;;;;;;5024585;28;20018;-73
2022/05/01 02:24:12;;;;;;;21.52;13.00;;;;;;;;;;5025931;28;20467;-73
2022/05/01 02:26:38;;;;;;;15.95;12.20;;;;;;;;;;5015967;28;20368;-72
2022/05/01 02:29:12;;;;;;;18.70;13.18;;;;;;;;;;5020506;28;20029;-73
2022/05/01 02:31:39;;;;;;;18.25;13.30;;;;;;;;;;5023446;28;20018;-73
2022/05/01 02:34:05;;;;;;;21.48;14.23;;;;;;;;;;5024068;28;20017;-73
2022/05/01 02:36:31;;;;;;;16.88;12.43;;;;;;;;;;5016684;28;20026;-73
2022/05/01 02:38:57;;;;;;;18.02;11.57;;;;;;;;;;5027898;28;20029;-73
2022/05/01 02:41:23;;;;;;;18.70;12.98;;;;;;;;;;5019943;28;20033;-73
2022/05/01 02:43:49;;;;;;;17.38;13.48;;;;;;;;;;5023066;28;20395;-72
2022/05/01 02:46:15;;;;;;;19.52;13.52;;;;;;;;;;5026679;28;20040;-73
2022/05/01 02:48:41;;;;;;;20.92;12.98;;;;;;;;;;5016054;28;20022;-73
2022/05/01 02:51:07;;;;;;;18.77;12.68;;;;;;;;;;5028830;28;20057;-72
2022/05/01 02:53:34;;;;;;;15.95;11.40;;;;;;;;;;5021386;28;20056;-72
2022/05/01 02:56:00;;;;;;;42.70;14.32;;;;;;;;;;5021208;28;20391;-72
2022/05/01 02:58:27;;;;;;;17.73;11.68;;;;;;;;;;5012621;28;20064;-72
2022/05/01 03:00:53;;;;;;;17.15;12.43;;;;;;;;;;5029615;28;20071;-71
2022/05/01 03:03:19;;;;;;;17.55;12.50;;;;;;;;;;5019186;28;20032;-71
2022/05/01 03:05:45;;;;;;;16.40;12.82;;;;;;;;;;5023064;28;20083;-71
2022/05/01 03:08:14;;;;;;;18.38;12.95;;;;;;;;;;5025217;28;20493;-72
2022/05/01 03:10:40;;;;;;;23.30;13.32;;;;;;;;;;5016024;28;20018;-71
2022/05/01 03:13:06;;;;;;;22.77;13.52;;;;;;;;;;5028486;28;20092;-71
2022/05/01 03:15:32;;;;;;;18.55;13.18;;;;;;;;;;5020802;28;20028;-71
2022/05/01 03:23:27;;;;;;;18.20;13.63;;;;;;;;;;5020339;28;20248;-71
2022/05/01 03:25:53;;;;;;;21.83;13.88;;;;;;;;;;5021767;28;20026;-72
2022/05/01 03:28:19;;;;;;;18.98;13.93;;;;;;;;;;5025890;28;20151;-72
2022/05/01 03:30:45;;;;;;;20.23;13.93;;;;;;;;;;5015903;28;20096;-72
2022/05/01 03:33:11;;;;;;;21.58;14.82;;;;;;;;;;5027519;28;20057;-72
2022/05/01 03:35:38;;;;;;;19.23;14.25;;;;;;;;;;5021349;28;20026;-72
2022/05/01 03:38:06;;;;;;;21.77;14.23;;;;;;;;;;5019827;28;20026;-72
2022/05/01 03:40:35;;;;;;;18.73;14.15;;;;;;;;;;5028768;28;20033;-74
2022/05/01 03:43:02;;;;;;;19.98;13.05;;;;;;;;;;4998565;28;20028;-73
2022/05/01 03:45:28;;;;;;;20.63;13.77;;;;;;;;;;5024464;28;20014;-74
2022/05/01 03:47:54;;;;;;;22.42;14.35;;;;;;;;;;5022169;28;20030;-72
2022/05/01 03:50:20;;;;;;;20.30;14.90;;;;;;;;;;5012414;28;20025;-73
2022/05/01 03:52:47;;;;;;;17.23;13.05;;;;;;;;;;5028549;28;20037;-72
2022/05/01 03:55:13;;;;;;;20.88;14.43;;;;;;;;;;5015263;28;20511;-71
2022/05/01 03:57:39;;;;;;;22.75;14.52;;;;;;;;;;5022142;28;20025;-73
2022/05/01 04:00:06;;;;;;;18.55;13.27;;;;;;;;;;5024025;28;20495;-73
2022/05/01 04:02:39;;;;;;;18.17;13.52;;;;;;;;;;5016039;28;20423;-72
2022/05/01 04:05:06;;;;;;;19.88;13.88;;;;;;;;;;5000519;28;20486;-72
2022/05/01 04:07:31;;;;;;;17.50;14.05;;;;;;;;;;5023861;28;20080;-71
2022/05/01 04:09:57;;;;;;;18.80;14.13;;;;;;;;;;5023250;28;20479;-72
2022/05/01 04:12:23;;;;;;;17.80;13.68;;;;;;;;;;5017265;28;20488;-71
2022/05/01 04:14:50;;;;;;;19.25;13.90;;;;;;;;;;5026956;28;20556;-71
2022/05/01 04:17:16;;;;;;;18.05;14.00;;;;;;;;;;5017577;28;20045;-71
2022/05/01 04:19:42;;;;;;;20.52;13.50;;;;;;;;;;5023087;28;20066;-72
2022/05/01 04:22:08;;;;;;;18.55;12.95;;;;;;;;;;5020006;28;20459;-71
2022/05/01 04:24:34;;;;;;;20.48;12.52;;;;;;;;;;5013678;28;20120;-72
2022/05/01 04:27:00;;;;;;;18.42;11.38;;;;;;;;;;5003885;28;20025;-70
2022/05/01 04:29:42;;;;;;;19.30;12.45;;;;;;;;;;5022273;28;20014;-71
2022/05/01 04:32:09;;;;;;;16.10;11.38;;;;;;;;;;5021286;28;20017;-71
2022/05/01 04:34:35;;;;;;;15.55;10.85;;;;;;;;;;5015480;28;20026;-71
2022/05/01 04:37:01;;;;;;;17.75;11.63;;;;;;;;;;5002472;28;20597;-70
2022/05/01 04:39:28;;;;;;;15.88;11.27;;;;;;;;;;5024610;28;20106;-72
2022/05/01 04:41:54;;;;;;;20.90;12.45;;;;;;;;;;5021623;28;20040;-72
2022/05/01 04:44:20;;;;;;;17.80;12.48;;;;;;;;;;5017160;28;20030;-71
2022/05/01 04:46:49;;;;;;;16.85;13.00;;;;;;;;;;4997263;28;20033;-72
2022/05/01 04:49:16;;;;;;;22.75;13.48;;;;;;;;;;5024572;28;20017;-72
2022/05/01 04:51:42;;;;;;;19.08;14.13;;;;;;;;;;5018882;28;20076;-72
2022/05/01 04:54:08;;;;;;;17.58;12.55;;;;;;;;;;5021714;28;20025;-72
2022/05/01 04:59:19;;;;;;;19.60;14.35;;;;;;;;;;5007143;28;20617;-72
2022/05/01 05:01:45;;;;;;;17.23;13.48;;;;;;;;;;5025804;28;20037;-72
2022/05/01 05:04:11;;;;;;;18.83;13.50;;;;;;;;;;5015805;28;20037;-73
2022/05/01 05:06:37;;;;;;;23.20;15.20;;;;;;;;;;5031598;28;20022;-72
2022/05/01 05:11:47;;;;;;;20.17;14.77;;;;;;;;;;5025524;28;20040;-72
2022/05/01 05:14:13;;;;;;;20.30;14.43;;;;;;;;;;5028499;28;20037;-71
2022/05/01 05:16:40;;;;;;;18.48;14.82;;;;;;;;;;5017284;28;20117;-72
2022/05/01 05:19:07;;;;;;;21.15;15.52;;;;;;;;;;5029919;28;20025;-74
2022/05/01 05:21:33;;;;;;;18.02;13.93;;;;;;;;;;5023033;28;20017;-72
2022/05/01 05:23:59;;;;;;;16.52;12.77;;;;;;;;;;5030784;28;20056;-73
2022/05/01 05:26:25;;;;;;;21.80;15.18;;;;;;;;;;5019433;28;20036;-73
2022/05/01 05:28:51;;;;;;;23.52;15.73;;;;;;;;;;5029655;28;20049;-72
2022/05/01 05:31:17;;;;;;;20.80;15.90;;;;;;;;;;5015104;28;20425;-73
2022/05/01 05:33:43;;;;;;;21.42;16.48;;;20.20;39.30;;;;;;5025588;28;20044;-73
2022/05/01 05:36:08;;;;;;;19.70;16.25;;;21.20;37.10;;;;;;5027386;28;20028;-72
2022/05/01 05:38:34;;;;;;;18.75;15.70;;;20.70;36.90;;;;;;5017198;28;20368;-72
2022/05/01 05:41:00;;;;;;;19.35;14.95;;;20.90;37.40;;;;;;5030486;28;20033;-73
2022/05/01 05:43:26;;;;;;;23.17;16.35;;;21.40;35.50;;;;;;5021726;28;20025;-72
2022/05/01 05:45:51;;;;;;;16.05;11.32;;;20.20;37.20;;;;;;5023972;28;20030;-72
2022/05/01 05:48:17;;;;;;;15.43;11.57;;;20.60;37.90;;;;;;5014062;28;20033;-72
2022/05/01 05:50:42;;;;;;;15.38;10.73;;;21.20;36.50;;;;;;5014439;28;20392;-72
2022/05/01 05:53:08;;;;;;;16.75;10.93;;;20.50;37.50;;;;;;5019262;28;20087;-72
2022/05/01 05:55:33;;;;;;;15.02;11.98;;;21.00;37.40;;;;;;5019107;28;20034;-72
2022/05/01 05:58:00;;;;;;;21.40;11.73;;;21.40;36.40;;;;;;5014357;28;20026;-72
2022/05/01 06:00:26;;;;;;;16.27;11.93;;;21.50;36.40;;;;;;5014452;28;20507;-72
2022/05/01 06:02:51;;;;;;;13.93;10.75;;;22.60;34.00;;;;;;5005718;28;20053;-73
2022/05/01 06:05:17;;;;;;;15.25;10.85;;;22.20;35.00;;;;;;5019994;28;20067;-73
2022/05/01 06:07:42;;;;;;;16.13;11.43;;;23.90;32.30;;;;;;5024130;28;20062;-72
2022/05/01 06:10:08;;;;;;;15.45;10.95;;;24.00;31.80;;;;;;5025712;28;20068;-73
2022/05/01 06:12:43;;;;;;;12.73;10.35;;;24.00;32.00;;;;;;5017534;28;20087;-72
2022/05/01 06:15:09;;;;;;;15.23;11.45;;;25.20;29.80;;;;;;5003736;28;20109;-72
2022/05/01 06:17:35;;;;;;;15.73;12.73;;;23.60;32.20;;;;;;5025323;28;20096;-72
2022/05/01 06:20:01;;;;;;;17.63;12.05;;;;;;;;;;5025623;28;20108;-72
2022/05/01 06:22:27;;;;;;;21.42;13.57;;;;;;;;;;5016926;28;20034;-74
2022/05/01 06:24:52;;;;;;;16.55;12.95;;;;;;;;;;5030120;28;20472;-72
2022/05/01 06:27:18;;;;;;;19.08;13.48;;;;;;;;;;5018927;28;20024;-72
2022/05/01 06:29:44;;;;;;;18.73;14.02;;;;;;;;;;5023927;28;20129;-72
2022/05/01 06:32:11;;;;;;;19.77;14.70;;;;;;;;;;5004614;28;20038;-72
2022/05/01 06:34:37;;;;;;;16.10;13.25;;;;;;;;;;5026836;28;20419;-73
2022/05/01 06:37:04;;;;;;;24.35;13.20;;;;;;;;;;5016900;28;20430;-72
2022/05/01 06:42:15;;;;;;;15.40;12.57;;;;;;;;;;5035874;28;20041;-72
2022/05/01 06:44:41;;;;;;;17.83;13.55;;;;;;;;;;5032849;28;20026;-72
2022/05/01 06:47:08;;;;;;;18.63;14.15;;;;;;;;;;5032509;28;20026;-71
2022/05/01 06:49:34;;;;;;;33.25;13.35;;;;;;;;;;5033243;28;20097;-75
2022/05/01 06:52:00;;;;;;;20.70;13.27;;;;;;;;;;5051942;28;20021;-70
2022/05/01 06:54:26;;;;;;;21.13;15.60;;;;;;;;;;5047700;28;20070;-70
2022/05/01 06:56:52;;;;;;;19.30;12.40;;;;;;;;;;5050441;28;20009;-71
2022/05/01 06:59:18;;;;;;;17.08;14.75;;;;;;;;;;5050427;28;20029;-71
2022/05/01 07:01:44;;;;;;;19.25;14.98;;;;;;;;;;5052565;28;20013;-71
2022/05/01 07:04:10;;;;;;;18.17;14.23;;;;;;;;;;5051725;28;20021;-73
2022/05/01 07:06:36;;;;;;;22.88;15.48;;;;;;;;;;5052217;28;20116;-73
2022/05/01 07:09:02;;;;;;;21.00;15.65;;;;;;;;;;5051789;28;20020;-71
2022/05/01 07:11:28;;;;;;;17.90;14.65;;;;;;;;;;5052498;28;20029;-71
2022/05/01 07:13:53;;;;;;;22.98;16.13;;;;;;;;;;5052502;28;20092;-71
2022/05/01 07:16:21;;;;;;;19.25;14.82;;;;;;;;;;5051024;28;20086;-73
2022/05/01 07:18:47;;;;;;;24.92;15.48;;;;;;;;;;5051564;28;20021;-70
2022/05/01 07:21:13;;;;;;;19.48;15.25;;;;;;;;;;5052220;28;20071;-71
2022/05/01 07:23:40;;;;;;;20.13;15.55;;;;;;;;;;5052430;28;20082;-72
2022/05/01 07:26:06;;;;;;;21.95;16.58;;;;;;;;;;5052178;28;20025;-71
2022/05/01 07:28:33;;;;;;;21.27;15.52;;;;;;;;;;5051231;28;20079;-72
2022/05/01 07:30:59;;;;;;;22.20;15.43;;;;;;;;;;5047381;28;20088;-72
2022/05/01 07:33:25;;;;;;;19.00;14.30;;;;;;;;;;5050971;28;20444;-72
2022/05/01 07:35:51;;;;;;;20.58;15.40;;;;;;;;;;5052062;28;20025;-72
2022/05/01 07:38:17;;;;;;;21.58;15.65;;;;;;;;;;5049680;28;20063;-69
2022/05/01 07:40:43;;;;;;;21.58;14.95;;;;;;;;;;5051444;28;20041;-70
2022/05/01 07:43:10;;;;;;;18.80;15.25;;;;;;;;;;5051938;28;20040;-70
2022/05/01 07:45:36;;;;;;;22.08;16.58;;;;;;;;;;5051855;28;20025;-67
2022/05/01 07:48:02;;;;;;;21.77;16.42;;;;;;;;;;5051595;28;20021;-72
2022/05/01 07:50:28;;;;;;;23.25;17.52;;;;;;;;;;5049712;28;20021;-71
2022/05/01 07:52:54;;;;;;;27.83;16.65;;;;;;;;;;5049047;28;20059;-71
2022/05/01 07:55:20;;;;;;;24.05;14.90;;;;;;;;;;5052391;28;20055;-71
2022/05/01 07:57:46;;;;;;;23.15;15.48;;;;;;;;;;5052384;28;20021;-71
2022/05/01 08:00:13;;;;;;;19.48;14.65;;;;;;;;;;5050914;28;20116;-72
2022/05/01 08:05:31;;;;;;;19.33;13.38;;;;;;;;;;5031812;28;20453;-72
2022/05/01 08:07:58;;;;;;;17.10;13.40;;;;;;;;;;5050717;28;20033;-71
2022/05/01 08:10:24;;;;;;;18.20;14.32;;;;;;;;;;5052281;28;20021;-71
2022/05/01 08:12:50;;;;;;;19.88;14.35;;;;;;;;;;5051832;28;20036;-72
2022/05/01 08:15:19;;;;;;;16.67;13.88;;;;;;;;;;5052188;28;20025;-72
2022/05/01 08:17:45;;;;;;;21.80;13.30;;;;;;;;;;5050276;28;20391;-72
2022/05/01 08:23:03;;;;;;;14.32;12.07;;;;;;;;;;5051181;28;20051;-72
2022/05/01 08:25:29;;;;;;;22.35;13.50;;;;;;;;;;5051145;28;20028;-72
2022/05/01 08:27:55;;;;;;;16.98;12.57;;;;;;;;;;5050404;28;20025;-72
2022/05/01 08:30:21;;;;;;;18.92;12.82;;;;;;;;;;5050369;28;20383;-72
2022/05/01 08:32:47;;;;;;;19.77;13.93;;;;;;;;;;5048737;28;20063;-72
2022/05/01 08:35:14;;;;;;;16.55;14.10;;;;;;;;;;5049189;28;20032;-72
2022/05/01 08:37:40;;;;;;;21.45;14.80;;;;;;;;;;5047283;28;20033;-71
2022/05/01 08:40:07;;;;;;;23.20;16.55;;;;;;;;;;5048983;28;20036;-72
2022/05/01 08:42:35;;;;;;;19.08;15.30;;;;;;;;;;5049072;28;20390;-71
2022/05/01 08:45:02;;;;;;;20.48;14.85;;;;;;;;;;5032701;28;20035;-71
2022/05/01 08:47:34;;;;;;;21.50;14.13;;;;;;;;;;5049761;28;20021;-71
2022/05/01 08:50:00;;;;;;;17.10;13.30;;;;;;;;;;5050468;28;20098;-72
2022/05/01 08:52:27;;;;;;;17.95;13.68;;;;;;;;;;5050582;28;20025;-71
2022/05/01 08:54:54;;;;;;;20.75;12.65;;;;;;;;;;5050899;28;20431;-71
2022/05/01 08:57:24;;;;;;;18.95;13.55;;;;;;;;;;5049643;28;20021;-72
2022/05/01 08:59:53;;;;;;;16.45;12.20;;;;;;;;;;5049138;28;20336;-72
2022/05/01 09:02:19;;;;;;;16.63;12.23;;;;;;;;;;5050767;28;20029;-73
2022/05/01 09:04:46;;;;;;;15.70;11.93;;;;;;;;;;5050584;28;20056;-72
2022/05/01 09:07:12;;;;;;;17.38;13.68;;;;;;;;;;5048855;28;20108;-71
2022/05/01 09:09:38;;;;;;;18.83;13.13;;;;;;;;;;5050837;28;20100;-71
2022/05/01 09:14:50;;;;;;;18.95;12.15;;;;;;;;;;5050766;28;20098;-71
2022/05/01 09:17:21;;;;;;;21.48;12.55;;;;;;;;;;5050000;28;20470;-71
2022/05/01 09:19:50;;;;;;;;;;;;;;;;;;5051326;28;20025;-71
2022/05/01 09:22:20;;;;;;;14.20;10.85;;;;;;;;;;5050299;28;19951;-71
2022/05/01 09:24:48;;;;;;;17.05;10.98;;;;;;;;;;5049093;28;20057;-71
2022/05/01 09:27:43;;;;;;;18.95;12.18;;;;;;;;;;5049770;28;20534;-71
2022/05/01 09:30:09;;;;;;;14.75;11.75;;;;;;;;;;5036001;28;20120;-72
2022/05/01 09:32:39;;;;;;;15.32;10.95;;;;;;;;;;5036494;28;20067;-72
2022/05/01 09:35:06;;;;;;;15.98;11.48;;;;;;;;;;5050596;28;20035;-72
2022/05/01 09:37:32;;;;;;;17.40;11.70;;;;;;;;;;5049835;28;20100;-71
2022/05/01 09:39:58;;;;;;;16.75;10.38;;;;;;;;;;5050098;28;20560;-71
2022/05/01 09:42:25;;;;;;;15.73;11.07;;;;;;;;;;5050318;28;20052;-71
2022/05/01 09:45:07;;;;;;;14.77;9.65;;;;;;;;;;5050819;28;20458;-73
2022/05/01 09:47:36;;;;;;;15.50;10.48;;;;;;;;;;5053203;28;20078;-71
2022/05/01 09:50:05;;;;;;;18.38;10.90;;;;;;;;;;5052629;28;20131;-72
2022/05/01 09:52:49;;;;;;;18.02;10.85;;;;;;;;;;5054097;28;20025;-72
2022/05/01 09:55:16;;;;;;;14.02;9.73;;;;;;;;;;5039454;28;20021;-71
2022/05/01 09:57:41;;;;;;;16.98;11.10;;;;;;;;;;5053147;28;20025;-71
2022/05/01 10:00:08;;;;;;;14.70;9.52;;;;;;;;;;5053672;28;20423;-73
2022/05/01 10:02:34;;;;;;;18.25;10.25;;;;;;;;;;5053647;28;20029;-73
2022/05/01 10:05:06;;;;;;;16.08;10.60;;;;;;;;;;5053918;28;20360;-72
2022/05/01 10:07:35;;;;;;;17.98;10.65;;;;;;;;;;5053241;28;20096;-71
2022/05/01 10:10:01;;;;;;;14.90;10.27;;;;;;;;;;5054022;28;20029;-72
2022/05/01 10:12:28;;;;;;;16.48;10.05;;;;;;;;;;5054017;28;20103;-71
2022/05/01 10:14:55;;;;;;;13.55;9.98;;;;;;;;;;5054033;28;20087;-72
2022/05/01 10:17:21;;;;;;;15.50;9.18;;;;;;;;;;5047683;28;20060;-72
2022/05/01 10:19:48;;;;;;;13.93;9.73;;;;;;;;;;5053266;28;20063;-73
2022/05/01 10:22:14;;;;;;;16.40;10.15;;;;;;;;;;5053269;28;20036;-73
2022/05/01 10:24:40;;;;;;;15.48;9.82;;;;;;;;;;5054182;28;20037;-72
2022/05/01 10:27:15;;;;;;;13.73;9.13;;;;;;;;;;5051925;28;20020;-71
2022/05/01 10:32:21;;;;;;;13.48;9.30;;;;;;;;;;5054060;28;20066;-72
2022/05/01 10:32:34;;;;;;;13.77;9.05;;;;;;;;;;5053483;28;20033;-73
2022/05/01 10:35:19;;;;;;;12.90;8.18;;;;;;;;;;5052797;28;20025;-72
2022/05/01 10:37:51;;;;;;;12.95;7.43;;;;;;;;;;5052520;28;20025;-72
2022/05/01 10:40:17;;;;;;;13.00;7.88;;;;;;;;;;5052455;28;20032;-71
2022/05/01 10:42:45;;;;;;;11.27;7.38;;;;;;;;;;5052951;28;20075;-72
2022/05/01 10:45:25;;;;;;;12.07;7.63;;;;;;;;;;5053409;28;20111;-72
2022/05/01 10:47:52;;;;;;;13.38;7.65;;;;;;;;;;5052528;28;20017;-72
2022/05/01 10:50:27;;;;;;;13.32;8.68;;;;;;;;;;5053331;28;20025;-72
2022/05/01 10:53:12;;;;;;;17.40;8.55;;;;;;;;;;5052876;28;20078;-73
2022/05/01 10:55:44;;;;;;;10.95;6.97;;;;;;;;;;5052554;28;20402;-72
2022/05/01 10:58:19;;;;;;;9.73;6.68;;;;;;;;;;5051699;28;20032;-72
2022/05/01 11:00:46;;;;;;;13.18;7.18;;;;;;;;;;5052774;28;20020;-71
2022/05/01 11:03:26;;;;;;;11.35;6.82;;;;;;;;;;5052705;28;20025;-72
2022/05/01 11:05:55;;;;;;;13.13;6.50;;;;;;;;;;5051115;28;20033;-73
2022/05/01 11:08:23;;;;;;;11.30;6.10;;;;;;;;;;5051742;28;20037;-71
2022/05/01 11:10:50;;;;;;;11.73;6.82;;;;;;;;;;5052268;28;20035;-71
2022/05/01 11:13:17;;;;;;;11.98;7.00;;;;;;;;;;5052533;28;20075;-72
2022/05/01 11:15:49;;;;;;;16.23;7.88;;;;;;;;;;5052755;28;20429;-71
2022/05/01 11:18:15;;;;;;;14.05;8.00;;;;;;;;;;5051628;28;20036;-73
2022/05/01 11:20:43;;;;;;;10.88;7.50;;;;;;;;;;5052282;28;20017;-72
2022/05/01 11:23:31;;;;;;;8.82;5.95;;;;;;;;;;5052047;28;20029;-72
2022/05/01 11:26:07;;;;;;;9.35;5.63;;;;;;;;;;5050805;28;20075;-72
2022/05/01 11:28:43;;;;;;;10.10;6.32;;;;;;;;;;5051537;28;20021;-71
2022/05/01 11:31:28;;;;;;;10.63;6.93;;;;;;;;;;5034754;28;20028;-71
2022/05/01 11:34:13;;;;;;;11.48;6.30;;;;;;;;;;5042700;28;20107;-72
2022/05/01 11:36:51;;;;;;;16.75;7.15;;;;;;;;;;5051982;28;20032;-72
2022/05/01 11:39:17;;;;;;;7.85;6.45;;;;;;;;;;5037160;28;20028;-72
2022/05/01 11:41:43;;;;;;;12.63;6.97;;;;;;;;;;5051535;28;20029;-72
2022/05/01 11:44:19;;;;;;;9.50;6.43;;;;;;;;;;5051424;28;20035;-71
2022/05/01 11:46:45;;;;;;;11.80;6.07;;;;;;;;;;5051407;28;20033;-71
2022/05/01 11:49:11;;;;;;;11.82;6.10;;;;;;;;;;5050912;28;20108;-71
2022/05/01 11:51:37;;;;;;;13.00;6.82;;;;;;;;;;5051400;28;20096;-71
2022/05/01 11:54:04;;;;;;;11.30;7.32;;;;;;;;;;5052282;28;20056;-72
2022/05/01 12:04:46;;;;;;;8.13;5.68;;;;;;;;;;5051328;28;20044;-72
2022/05/01 12:07:17;;;;;;;8.60;5.90;;;;;;;;;;5050197;28;20017;-75
2022/05/01 12:09:44;;;;;;;11.70;7.22;;;;;;;;;;5051699;28;20075;-73
2022/05/01 12:12:12;;;;;;;8.90;5.63;;;;;;;;;;5051254;28;20032;-71
2022/05/01 12:14:38;;;;;;;8.07;5.75;;;;;;;;;;5051745;28;20072;-72
2022/05/01 12:17:13;;;;;;;9.85;6.05;;;;;;;;;;5050811;28;20017;-71
2022/05/01 12:19:40;;;;;;;9.85;5.97;;;;;;;;;;5051150;28;20021;-72
2022/05/01 12:22:07;;;;;;;9.13;6.47;;;;;;;;;;5051029;28;20074;-72
2022/05/01 12:24:33;;;;;;;9.93;5.95;;;;;;;;;;5051157;28;20025;-72
2022/05/01 12:27:00;;;;;;;8.95;5.72;;;;;;;;;;5050697;28;20048;-72
2022/05/01 12:29:28;;;;;;;11.13;6.03;;;;;;;;;;5050697;28;20090;-71
2022/05/01 12:31:55;;;;;;;11.75;6.18;;;;;;;;;;5051035;28;20064;-72
2022/05/01 12:34:24;;;;;;;8.93;6.22;;;;;;;;;;5051296;28;20095;-72
2022/05/01 12:36:54;;;;;;;14.65;7.13;;;;;;;;;;5050766;28;20092;-71
2022/05/01 12:39:22;;;;;;;11.23;6.95;;;;;;;;;;5049043;28;20024;-72
2022/05/01 12:45:10;;;;;;;9.52;5.88;;;;;;;;;;5037634;28;20167;-78
2022/05/01 12:47:40;;;;;;;11.43;6.75;;;;;;;;;;5037675;28;20021;-78
2022/05/01 12:50:21;;;;;;;9.73;5.97;;;;;;;;;;5033562;28;20034;-79
2022/05/01 12:52:50;;;;;;;7.47;5.55;;;;;;;;;;5017357;28;20112;-77
2022/05/01 12:55:21;;;;;;;12.20;6.70;;;;;;;;;;5026611;28;20018;-78
2022/05/01 12:57:51;;;;;;;9.30;6.23;;;;;;;;;;5022223;28;20024;-78
2022/05/01 13:00:32;;;;;;;11.18;6.93;;;;;;;;;;5033598;28;20018;-78
2022/05/01 13:03:19;;;;;;;11.38;6.82;;;;;;;;;;5015694;28;20022;-79
2022/05/01 13:05:54;;;;;;;10.18;6.70;;;;;;;;;;5010229;28;20113;-77
2022/05/01 13:08:21;;;;;;;10.60;7.07;;;;;;;;;;5011461;28;20029;-78
2022/05/01 13:11:06;;;;;;;12.32;6.97;;;;;;;;;;5029392;28;20025;-78
2022/05/01 13:13:47;;;;;;;8.65;5.97;;;;;;;;;;5013731;28;20113;-78
2022/05/01 13:16:14;;;;;;;8.88;6.10;;;;;;;;;;5012658;28;20116;-78
2022/05/01 13:18:40;;;;;;;10.23;5.28;;;;;;;;;;5014845;28;20038;-78
2022/05/01 13:21:06;;;;;;;9.07;5.05;;;;;;;;;;5017670;28;20029;-78
2022/05/01 13:23:34;;;;;;;10.15;5.60;;;;;;;;;;5017379;28;20368;-78
2022/05/01 13:26:01;;;;;;;9.52;5.22;;;;;;;;;;5017619;28;20458;-78
2022/05/01 13:28:29;;;;;;;9.10;5.35;;;;;;;;;;5017572;28;20050;-78
2022/05/01 13:30:55;;;;;;;11.07;6.28;;;;;;;;;;5017125;28;20038;-78
2022/05/01 13:33:24;;;;;;;9.20;6.43;;;;;;;;;;5026416;28;20024;-77
2022/05/01 13:35:50;;;;;;;7.57;5.70;;;;;;;;;;5026704;28;20040;-77
2022/05/01 13:38:17;;;;;;;11.30;6.30;;;;;;;;;;5016962;28;20062;-77
2022/05/01 13:46:12;;;;;;;8.55;6.13;;;;;;;;;;5036429;28;20577;-78
2022/05/01 13:48:38;;;;;;;9.98;5.63;;;;;;;;;;5020098;28;20025;-78
2022/05/01 13:51:07;;;;;;;7.00;5.05;;;;;;;;;;5037499;28;20029;-78
2022/05/01 13:53:38;;;;;;;7.55;4.85;;;;;;;;;;5007447;28;20029;-77
2022/05/01 13:56:06;;;;;;;5.13;3.80;;;;;;;;;;5010211;28;20280;-77
2022/05/01 13:58:32;;;;;;;6.60;4.30;;;;;;;;;;5022021;28;20026;-79
2022/05/01 14:01:00;;;;;;;7.40;4.35;;;;;;;;;;5015981;28;20435;-77
2022/05/01 14:03:26;;;;;;;8.15;3.63;;;;;;;;;;5022782;28;20044;-77
2022/05/01 14:05:52;;;;;;;6.28;4.13;;;;;;;;;;5033840;28;20175;-77
2022/05/01 14:08:18;;;;;;;9.35;4.13;;;;;;;;;;5035219;28;20129;-78
2022/05/01 14:10:44;;;;;;;8.52;4.35;;;;;;;;;;5033052;28;20022;-79
2022/05/01 14:13:11;;;;;;;5.22;3.60;;;;;;;;;;5015126;28;20049;-76
2022/05/01 14:15:37;;;;;;;6.75;3.92;;;;;;;;;;5024541;28;20475;-79
2022/05/01 14:18:04;;;;;;;10.65;4.55;;;;;;;;;;5023083;28;20573;-77
2022/05/01 14:20:31;;;;;;;10.88;4.57;;;;;;;;;;5016122;28;20042;-78
2022/05/01 14:22:58;;;;;;;9.23;4.50;;;;;;;;;;5016381;28;20018;-77
2022/05/01 14:25:24;;;;;;;10.20;4.95;;;;;;;;;;5022630;28;20053;-78
2022/05/01 14:27:50;;;;;;;14.63;4.60;;;;;;;;;;5035962;28;20096;-78
2022/05/01 14:30:17;;;;;;;10.25;4.50;;;;;;;;;;5019502;28;20053;-78
2022/05/01 14:32:51;;;;;;;8.10;4.28;;;;;;;;;;5035301;28;20032;-77
2022/05/01 14:35:19;;;;;;;10.65;4.28;;;;;;;;;;5036897;28;20083;-78
2022/05/01 14:37:58;;;;;;;5.10;3.65;;;;;;;;;;5036395;28;20079;-78
2022/05/01 14:40:27;;;;;;;5.78;3.70;;;;;;;;;;5023483;28;20057;-79
2022/05/01 14:42:59;;;;;;;9.07;4.43;;;;;;;;;;5016232;28;20069;-78
2022/05/01 14:45:29;;;;;;;5.93;3.80;;;;;;;;;;5022108;28;20017;-78
2022/05/01 14:48:14;;;;;;;6.72;3.95;;;;;;;;;;5035951;28;20117;-79
2022/05/01 14:50:40;;;;;;;7.70;3.42;;;;;;;;;;5018655;28;20563;-78
2022/05/01 14:53:10;;;;;;;6.63;3.45;;;;;;;;;;5015529;28;20472;-78
2022/05/01 14:55:39;;;;;;;15.57;7.78;;;;;;;;;;5023271;28;20079;-77
2022/05/01 15:06:17;;;;;;;6.50;3.78;;;;;;;;;;5036023;28;20128;-78
2022/05/01 15:06:22;;;;;;;7.90;3.72;;;;;;;;;;5020669;28;20557;-79
2022/05/01 15:08:52;;;;;;;5.57;3.10;;;;;;;;;;5033665;28;20025;-77
2022/05/01 15:11:18;;;;;;;8.35;3.58;;;;;;;;;;5035995;28;20021;-77
2022/05/01 15:13:46;;;;;;;7.95;3.42;;;;;;;;;;5026961;28;20025;-78